sensor_id;sensor_type;location;lat;lon;timestamp;P1;durP1;ratioP1;P2;durP2;ratioP2
57535;SDS011;43361;49.790;8.960;2022-08-21T00:03:24;2.80;;;1.75;;
57535;SDS011;43361;49.790;8.960;2022-08-21T00:13:25;2.60;;;1.63;;
57535;SDS011;43361;49.790;8.960;2022-08-21T00:23:27;2.60;;;1.60;;
57535;SDS011;43361;49.790;8.960;2022-08-21T00:33:28;2.28;;;1.70;;
57535;SDS011;43361;49.790;8.960;2022-08-21T00:43:31;3.72;;;1.88;;
57535;SDS011;43361;49.790;8.960;2022-08-21T00:53:32;3.28;;;2.10;;
57535;SDS011;43361;49.790;8.960;2022-08-21T01:03:34;2.78;;;1.83;;
57535;SDS011;43361;49.790;8.960;2022-08-21T01:13:36;2.20;;;1.60;;
57535;SDS011;43361;49.790;8.960;2022-08-21T01:23:39;4.15;;;1.85;;
57535;SDS011;43361;49.790;8.960;2022-08-21T01:33:39;2.97;;;1.77;;
57535;SDS011;43361;49.790;8.960;2022-08-21T01:43:41;3.13;;;1.80;;
57535;SDS011;43361;49.790;8.960;2022-08-21T01:53:42;2.50;;;1.60;;
57535;SDS011;43361;49.790;8.960;2022-08-21T02:03:44;3.58;;;1.80;;
57535;SDS011;43361;49.790;8.960;2022-08-21T02:13:45;2.53;;;1.75;;
57535;SDS011;43361;49.790;8.960;2022-08-21T02:23:46;2.45;;;1.58;;
57535;SDS011;43361;49.790;8.960;2022-08-21T02:33:47;3.33;;;1.80;;
57535;SDS011;43361;49.790;8.960;2022-08-21T02:43:49;2.38;;;1.67;;
57535;SDS011;43361;49.790;8.960;2022-08-21T02:53:49;3.15;;;1.95;;
57535;SDS011;43361;49.790;8.960;2022-08-21T03:03:53;3.13;;;2.08;;
57535;SDS011;43361;49.790;8.960;2022-08-21T03:13:53;2.40;;;1.75;;
57535;SDS011;43361;49.790;8.960;2022-08-21T03:23:55;2.30;;;1.80;;
57535;SDS011;43361;49.790;8.960;2022-08-21T03:33:55;2.55;;;1.92;;
57535;SDS011;43361;49.790;8.960;2022-08-21T03:43:57;2.25;;;1.70;;
57535;SDS011;43361;49.790;8.960;2022-08-21T03:53:59;2.40;;;1.80;;
57535;SDS011;43361;49.790;8.960;2022-08-21T04:04:01;3.33;;;2.08;;
57535;SDS011;43361;49.790;8.960;2022-08-21T04:14:01;2.90;;;2.10;;
57535;SDS011;43361;49.790;8.960;2022-08-21T04:24:03;2.75;;;2.05;;
57535;SDS011;43361;49.790;8.960;2022-08-21T04:34:04;2.72;;;2.30;;
57535;SDS011;43361;49.790;8.960;2022-08-21T04:44:06;2.30;;;1.90;;
57535;SDS011;43361;49.790;8.960;2022-08-21T04:54:09;2.42;;;1.73;;
57535;SDS011;43361;49.790;8.960;2022-08-21T05:04:12;2.47;;;1.90;;
57535;SDS011;43361;49.790;8.960;2022-08-21T05:14:14;2.00;;;1.63;;
57535;SDS011;43361;49.790;8.960;2022-08-21T05:24:16;3.63;;;2.43;;
57535;SDS011;43361;49.790;8.960;2022-08-21T05:34:18;2.60;;;1.80;;
57535;SDS011;43361;49.790;8.960;2022-08-21T05:44:20;3.00;;;2.20;;
57535;SDS011;43361;49.790;8.960;2022-08-21T05:54:21;2.47;;;1.80;;
57535;SDS011;43361;49.790;8.960;2022-08-21T06:04:22;4.85;;;2.05;;
57535;SDS011;43361;49.790;8.960;2022-08-21T06:14:23;10.38;;;3.17;;
57535;SDS011;43361;49.790;8.960;2022-08-21T06:24:25;7.28;;;4.07;;
57535;SDS011;43361;49.790;8.960;2022-08-21T06:34:25;6.45;;;3.25;;
57535;SDS011;43361;49.790;8.960;2022-08-21T06:44:27;4.72;;;3.05;;
57535;SDS011;43361;49.790;8.960;2022-08-21T06:54:28;5.68;;;3.15;;
57535;SDS011;43361;49.790;8.960;2022-08-21T07:04:29;13.98;;;3.95;;
57535;SDS011;43361;49.790;8.960;2022-08-21T07:14:30;14.90;;;4.13;;
57535;SDS011;43361;49.790;8.960;2022-08-21T07:24:32;11.30;;;3.45;;
57535;SDS011;43361;49.790;8.960;2022-08-21T07:34:32;6.55;;;3.70;;
57535;SDS011;43361;49.790;8.960;2022-08-21T07:44:34;5.07;;;3.25;;
57535;SDS011;43361;49.790;8.960;2022-08-21T07:54:34;9.30;;;3.75;;
57535;SDS011;43361;49.790;8.960;2022-08-21T08:04:36;6.03;;;3.35;;
57535;SDS011;43361;49.790;8.960;2022-08-21T08:14:37;6.35;;;3.50;;
57535;SDS011;43361;49.790;8.960;2022-08-21T08:24:39;4.75;;;3.20;;
57535;SDS011;43361;49.790;8.960;2022-08-21T08:34:39;6.35;;;3.00;;
57535;SDS011;43361;49.790;8.960;2022-08-21T08:44:41;6.40;;;3.05;;
57535;SDS011;43361;49.790;8.960;2022-08-21T08:54:43;6.57;;;3.33;;
57535;SDS011;43361;49.790;8.960;2022-08-21T09:04:47;5.00;;;3.35;;
57535;SDS011;43361;49.790;8.960;2022-08-21T09:14:50;3.95;;;2.97;;
57535;SDS011;43361;49.790;8.960;2022-08-21T09:24:56;4.88;;;3.22;;
57535;SDS011;43361;49.790;8.960;2022-08-21T09:35:04;7.80;;;3.00;;
57535;SDS011;43361;49.790;8.960;2022-08-21T09:45:09;7.70;;;3.42;;
57535;SDS011;43361;49.790;8.960;2022-08-21T09:55:13;7.07;;;3.20;;
57535;SDS011;43361;49.790;8.960;2022-08-21T10:05:36;4.75;;;2.92;;
57535;SDS011;43361;49.790;8.960;2022-08-21T10:15:40;8.15;;;3.50;;
57535;SDS011;43361;49.790;8.960;2022-08-21T10:25:44;6.75;;;3.20;;
57535;SDS011;43361;49.790;8.960;2022-08-21T10:35:49;4.65;;;3.47;;
57535;SDS011;43361;49.790;8.960;2022-08-21T10:45:55;7.13;;;3.60;;
57535;SDS011;43361;49.790;8.960;2022-08-21T10:55:59;6.55;;;3.92;;
57535;SDS011;43361;49.790;8.960;2022-08-21T11:06:04;5.50;;;3.40;;
57535;SDS011;43361;49.790;8.960;2022-08-21T11:16:09;4.30;;;3.40;;
57535;SDS011;43361;49.790;8.960;2022-08-21T11:26:13;5.65;;;3.65;;
57535;SDS011;43361;49.790;8.960;2022-08-21T11:36:18;7.32;;;3.90;;
57535;SDS011;43361;49.790;8.960;2022-08-21T11:46:24;4.78;;;3.40;;
57535;SDS011;43361;49.790;8.960;2022-08-21T11:56:28;9.27;;;3.63;;
57535;SDS011;43361;49.790;8.960;2022-08-21T12:06:33;15.43;;;3.67;;
57535;SDS011;43361;49.790;8.960;2022-08-21T12:16:34;6.60;;;3.35;;
57535;SDS011;43361;49.790;8.960;2022-08-21T12:26:47;10.32;;;3.70;;
57535;SDS011;43361;49.790;8.960;2022-08-21T12:36:49;9.60;;;3.63;;
57535;SDS011;43361;49.790;8.960;2022-08-21T12:46:54;7.88;;;4.05;;
57535;SDS011;43361;49.790;8.960;2022-08-21T12:56:57;9.65;;;3.60;;
57535;SDS011;43361;49.790;8.960;2022-08-21T13:06:59;11.10;;;3.50;;
57535;SDS011;43361;49.790;8.960;2022-08-21T13:17:00;5.22;;;3.28;;
57535;SDS011;43361;49.790;8.960;2022-08-21T13:27:14;5.53;;;3.40;;
57535;SDS011;43361;49.790;8.960;2022-08-21T13:37:15;5.30;;;3.60;;
57535;SDS011;43361;49.790;8.960;2022-08-21T13:47:17;6.07;;;3.60;;
57535;SDS011;43361;49.790;8.960;2022-08-21T13:57:18;7.55;;;3.92;;
57535;SDS011;43361;49.790;8.960;2022-08-21T14:07:20;7.93;;;4.13;;
57535;SDS011;43361;49.790;8.960;2022-08-21T14:17:29;10.32;;;4.07;;
57535;SDS011;43361;49.790;8.960;2022-08-21T14:27:33;7.38;;;3.90;;
57535;SDS011;43361;49.790;8.960;2022-08-21T14:37:33;7.65;;;4.32;;
57535;SDS011;43361;49.790;8.960;2022-08-21T14:47:35;5.53;;;4.00;;
57535;SDS011;43361;49.790;8.960;2022-08-21T14:57:37;6.25;;;4.05;;
57535;SDS011;43361;49.790;8.960;2022-08-21T15:07:39;9.52;;;4.47;;
57535;SDS011;43361;49.790;8.960;2022-08-21T15:17:40;9.45;;;3.90;;
57535;SDS011;43361;49.790;8.960;2022-08-21T15:27:42;6.70;;;4.05;;
57535;SDS011;43361;49.790;8.960;2022-08-21T15:37:42;8.77;;;4.20;;
57535;SDS011;43361;49.790;8.960;2022-08-21T15:47:44;8.13;;;4.05;;
57535;SDS011;43361;49.790;8.960;2022-08-21T15:57:46;8.60;;;4.43;;
57535;SDS011;43361;49.790;8.960;2022-08-21T16:07:48;7.93;;;4.20;;
57535;SDS011;43361;49.790;8.960;2022-08-21T16:17:49;10.27;;;4.47;;
57535;SDS011;43361;49.790;8.960;2022-08-21T16:27:54;9.45;;;5.00;;
57535;SDS011;43361;49.790;8.960;2022-08-21T16:37:55;14.88;;;5.97;;
57535;SDS011;43361;49.790;8.960;2022-08-21T16:47:57;17.60;;;5.90;;
57535;SDS011;43361;49.790;8.960;2022-08-21T16:57:58;22.23;;;7.20;;
57535;SDS011;43361;49.790;8.960;2022-08-21T17:08:01;16.80;;;6.80;;
57535;SDS011;43361;49.790;8.960;2022-08-21T17:18:02;21.10;;;6.95;;
57535;SDS011;43361;49.790;8.960;2022-08-21T17:28:04;19.05;;;6.35;;
57535;SDS011;43361;49.790;8.960;2022-08-21T17:38:06;19.13;;;6.72;;
57535;SDS011;43361;49.790;8.960;2022-08-21T17:48:08;14.88;;;6.85;;
57535;SDS011;43361;49.790;8.960;2022-08-21T17:58:09;15.32;;;6.50;;
57535;SDS011;43361;49.790;8.960;2022-08-21T18:08:14;12.27;;;6.03;;
57535;SDS011;43361;49.790;8.960;2022-08-21T18:18:14;15.02;;;6.88;;
57535;SDS011;43361;49.790;8.960;2022-08-21T18:28:16;13.57;;;6.30;;
57535;SDS011;43361;49.790;8.960;2022-08-21T18:38:17;13.98;;;6.28;;
57535;SDS011;43361;49.790;8.960;2022-08-21T18:48:22;16.17;;;6.70;;
57535;SDS011;43361;49.790;8.960;2022-08-21T18:58:23;14.20;;;6.03;;
57535;SDS011;43361;49.790;8.960;2022-08-21T19:08:25;14.20;;;6.27;;
57535;SDS011;43361;49.790;8.960;2022-08-21T19:18:28;14.30;;;6.65;;
57535;SDS011;43361;49.790;8.960;2022-08-21T19:28:33;13.20;;;6.70;;
57535;SDS011;43361;49.790;8.960;2022-08-21T19:38:35;11.05;;;5.50;;
57535;SDS011;43361;49.790;8.960;2022-08-21T19:48:37;11.53;;;6.00;;
57535;SDS011;43361;49.790;8.960;2022-08-21T19:58:38;14.98;;;6.43;;
57535;SDS011;43361;49.790;8.960;2022-08-21T20:08:41;16.02;;;7.10;;
57535;SDS011;43361;49.790;8.960;2022-08-21T20:18:41;10.85;;;5.40;;
57535;SDS011;43361;49.790;8.960;2022-08-21T20:28:43;15.75;;;6.47;;
57535;SDS011;43361;49.790;8.960;2022-08-21T20:38:43;21.90;;;7.07;;
57535;SDS011;43361;49.790;8.960;2022-08-21T20:48:45;23.67;;;8.35;;
57535;SDS011;43361;49.790;8.960;2022-08-21T20:58:48;19.20;;;8.15;;
57535;SDS011;43361;49.790;8.960;2022-08-21T21:08:53;20.02;;;8.40;;
57535;SDS011;43361;49.790;8.960;2022-08-21T21:18:57;18.85;;;7.57;;
57535;SDS011;43361;49.790;8.960;2022-08-21T21:29:00;21.08;;;8.70;;
57535;SDS011;43361;49.790;8.960;2022-08-21T21:39:07;15.80;;;7.85;;
57535;SDS011;43361;49.790;8.960;2022-08-21T21:49:13;17.33;;;8.25;;
57535;SDS011;43361;49.790;8.960;2022-08-21T22:09:42;16.80;;;7.65;;
57535;SDS011;43361;49.790;8.960;2022-08-21T22:19:43;14.13;;;6.82;;
57535;SDS011;43361;49.790;8.960;2022-08-21T22:29:46;15.07;;;7.45;;
57535;SDS011;43361;49.790;8.960;2022-08-21T22:39:52;12.65;;;7.10;;
57535;SDS011;43361;49.790;8.960;2022-08-21T22:49:54;13.88;;;6.85;;
57535;SDS011;43361;49.790;8.960;2022-08-21T22:59:57;13.85;;;6.78;;
57535;SDS011;43361;49.790;8.960;2022-08-21T23:09:59;12.93;;;7.30;;
57535;SDS011;43361;49.790;8.960;2022-08-21T23:20:03;11.38;;;6.38;;
57535;SDS011;43361;49.790;8.960;2022-08-21T23:40:13;14.00;;;6.83;;
57535;SDS011;43361;49.790;8.960;2022-08-21T23:50:20;14.02;;;6.40;;
